Time;durP1;ratioP1;P1;durP2;ratioP2;P2;SDS_P1;SDS_P2;PMS_P1;PMS_P2;Temp;Humidity;BMP_temperature;BMP_pressure;BME280_temperature;BME280_humidity;BME280_pressure;Samples;Min_cycle;Max_cycle;Signal;HPM_P1;HPM_P2
2024/01/15 00:01:44;;;;;;;46.60;22.90;;;;;;;-128.00;-1.00;-1.00;107344;1237;1010978;-72
2024/01/15 00:04:13;;;;;;;50.50;26.00;;;;;;;-128.00;-1.00;-1.00;107204;1237;1013904;-72
2024/01/15 00:06:42;;;;;;;50.40;25.00;;;;;;;-128.00;-1.00;-1.00;107396;1237;1013174;-72
2024/01/15 00:09:11;;;;;;;53.40;25.50;;;;;;;-128.00;-1.00;-1.00;107308;1244;1013535;-71
2024/01/15 00:11:39;;;;;;;51.50;26.00;;;;;;;-128.00;-1.00;-1.00;107319;1244;1013090;-71
2024/01/15 00:14:08;;;;;;;48.40;25.30;;;;;;;-128.00;-1.00;-1.00;107335;1238;1011905;-72
2024/01/15 00:16:37;;;;;;;62.20;30.50;;;;;;;-128.00;-1.00;-1.00;107335;1244;1011166;-71
2024/01/15 00:19:06;;;;;;;58.30;30.60;;;;;;;-128.00;-1.00;-1.00;107345;1237;1013081;-71
2024/01/15 00:21:35;;;;;;;60.80;30.10;;;;;;;-128.00;-1.00;-1.00;107350;1238;1012692;-71
2024/01/15 00:24:04;;;;;;;59.90;27.90;;;;;;;-128.00;-1.00;-1.00;107285;1244;1012788;-71
2024/01/15 00:26:33;;;;;;;54.80;26.70;;;;;;;-128.00;-1.00;-1.00;107283;1239;1013899;-71
2024/01/15 00:29:03;;;;;;;57.50;28.80;;;;;;;-128.00;-1.00;-1.00;107313;1237;1011053;-71
2024/01/15 00:31:31;;;;;;;63.10;30.00;;;;;;;-128.00;-1.00;-1.00;107374;1237;1010992;-71
2024/01/15 00:34:00;;;;;;;63.00;30.50;;;;;;;-128.00;-1.00;-1.00;107499;1238;1012403;-72
2024/01/15 00:36:31;;;;;;;71.10;31.60;;;;;;;-128.00;-1.00;-1.00;107435;1244;1012704;-70
2024/01/15 00:39:00;;;;;;;55.60;27.80;;;;;;;-128.00;-1.00;-1.00;107450;1244;1012403;-72
2024/01/15 00:41:32;;;;;;;61.70;29.70;;;;;;;-128.00;-1.00;-1.00;107469;1238;1012756;-71
2024/01/15 00:44:01;;;;;;;58.10;31.40;;;;;;;-128.00;-1.00;-1.00;107443;1244;1010769;-71
2024/01/15 00:46:29;;;;;;;62.70;29.80;;;;;;;-128.00;-1.00;-1.00;107487;1244;1012295;-71
2024/01/15 00:48:58;;;;;;;65.20;31.60;;;;;;;-128.00;-1.00;-1.00;107501;1237;1013225;-70
2024/01/15 00:51:27;;;;;;;76.50;34.40;;;;;;;-128.00;-1.00;-1.00;107479;1238;1012951;-70
2024/01/15 00:53:55;;;;;;;77.90;36.70;;;;;;;-128.00;-1.00;-1.00;107461;1239;1013681;-70
2024/01/15 00:56:25;;;;;;;62.50;29.90;;;;;;;-128.00;-1.00;-1.00;107439;1237;1012546;-70
2024/01/15 00:58:53;;;;;;;69.30;31.70;;;;;;;-128.00;-1.00;-1.00;107451;1238;1010528;-70
2024/01/15 01:01:22;;;;;;;60.10;28.70;;;;;;;-128.00;-1.00;-1.00;107505;1236;1011245;-71
2024/01/15 01:03:51;;;;;;;65.20;31.60;;;;;;;-128.00;-1.00;-1.00;107498;1235;1012627;-71
2024/01/15 01:06:20;;;;;;;68.50;31.80;;;;;;;-128.00;-1.00;-1.00;107545;1236;1012816;-72
2024/01/15 01:08:50;;;;;;;67.70;32.50;;;;;;;-128.00;-1.00;-1.00;107495;1238;1012523;-72
2024/01/15 01:11:19;;;;;;;65.90;32.50;;;;;;;-128.00;-1.00;-1.00;107450;1238;1012657;-73
2024/01/15 01:13:47;;;;;;;70.70;32.30;;;;;;;-128.00;-1.00;-1.00;107466;1239;1009954;-76
2024/01/15 01:16:16;;;;;;;71.30;32.90;;;;;;;-128.00;-1.00;-1.00;107504;1238;1010520;-73
2024/01/15 01:18:45;;;;;;;67.20;31.70;;;;;;;-128.00;-1.00;-1.00;107508;1237;1012661;-71
2024/01/15 01:21:15;;;;;;;73.80;32.20;;;;;;;-128.00;-1.00;-1.00;107502;1236;1013317;-70
2024/01/15 01:23:43;;;;;;;69.80;31.20;;;;;;;-128.00;-1.00;-1.00;107460;1237;1012274;-69
2024/01/15 01:26:16;;;;;;;68.90;33.50;;;;;;;-128.00;-1.00;-1.00;107438;1238;1014169;-71
2024/01/15 01:28:45;;;;;;;;;;;;;;;-128.00;-1.00;-1.00;107477;1238;1009729;-72
2024/01/15 01:31:14;;;;;;;53.70;26.90;;;;;;;-128.00;-1.00;-1.00;107304;1239;1011656;-71
2024/01/15 01:33:42;;;;;;;57.60;25.60;;;;;;;-128.00;-1.00;-1.00;107306;1237;1013616;-72
2024/01/15 01:36:11;;;;;;;55.80;25.60;;;;;;;-128.00;-1.00;-1.00;107313;1238;1014370;-71
2024/01/15 01:38:41;;;;;;;50.90;24.90;;;;;;;-128.00;-1.00;-1.00;107280;1236;1011996;-71
2024/01/15 01:41:10;;;;;;;55.40;26.10;;;;;;;-128.00;-1.00;-1.00;107163;1237;1013336;-71
2024/01/15 01:43:38;;;;;;;50.10;25.70;;;;;;;-128.00;-1.00;-1.00;107122;1240;1010724;-70
2024/01/15 01:46:07;;;;;;;52.40;25.30;;;;;;;-128.00;-1.00;-1.00;107349;1237;1010999;-70
2024/01/15 01:48:37;;;;;;;61.10;29.50;;;;;;;-128.00;-1.00;-1.00;107358;1237;1013603;-71
2024/01/15 01:51:05;;;;;;;54.40;27.50;;;;;;;-128.00;-1.00;-1.00;107426;1237;1013697;-70
2024/01/15 01:53:37;;;;;;;59.10;27.40;;;;;;;-128.00;-1.00;-1.00;107245;1237;1013545;-71
2024/01/15 01:56:07;;;;;;;66.40;32.00;;;;;;;-128.00;-1.00;-1.00;107327;1237;1013313;-71
2024/01/15 01:58:36;;;;;;;75.50;34.60;;;;;;;-128.00;-1.00;-1.00;107407;1237;1011082;-70
2024/01/15 02:01:05;;;;;;;65.60;31.30;;;;;;;-128.00;-1.00;-1.00;107294;1238;1011647;-71
2024/01/15 02:03:35;;;;;;;65.00;31.50;;;;;;;-128.00;-1.00;-1.00;107296;1237;1013061;-71
2024/01/15 02:06:04;;;;;;;58.70;29.20;;;;;;;-128.00;-1.00;-1.00;107303;1237;1012270;-72
2024/01/15 02:08:34;;;;;;;60.80;27.40;;;;;;;-128.00;-1.00;-1.00;107278;1237;1013515;-72
2024/01/15 02:11:03;;;;;;;62.00;30.00;;;;;;;-128.00;-1.00;-1.00;107194;1239;1013246;-72
2024/01/15 02:13:32;;;;;;;63.00;29.90;;;;;;;-128.00;-1.00;-1.00;107315;1236;1010009;-71
2024/01/15 02:16:01;;;;;;;73.20;32.50;;;;;;;-128.00;-1.00;-1.00;107269;1237;1011797;-72
2024/01/15 02:18:42;;;;;;;67.70;33.00;;;;;;;-128.00;-1.00;-1.00;107340;1238;1013854;-71
2024/01/15 02:21:11;;;;;;;65.20;30.20;;;;;;;-128.00;-1.00;-1.00;107277;1238;1014142;-70
2024/01/15 02:23:40;;;;;;;69.90;32.40;;;;;;;-128.00;-1.00;-1.00;107409;1236;1012237;-70
2024/01/15 02:26:09;;;;;;;72.80;32.50;;;;;;;-128.00;-1.00;-1.00;107440;1239;1012866;-70
2024/01/15 02:28:38;;;;;;;68.30;32.90;;;;;;;-128.00;-1.00;-1.00;107389;1237;1010451;-71
2024/01/15 02:31:06;;;;;;;64.60;30.10;;;;;;;-128.00;-1.00;-1.00;107427;1237;1011809;-71
2024/01/15 02:33:35;;;;;;;60.60;30.50;;;;;;;-128.00;-1.00;-1.00;107446;1237;1012508;-70
2024/01/15 02:36:04;;;;;;;70.30;31.10;;;;;;;-128.00;-1.00;-1.00;107429;1237;1013238;-70
2024/01/15 02:38:33;;;;;;;63.30;30.50;;;;;;;-128.00;-1.00;-1.00;107392;1236;1012550;-70
2024/01/15 02:41:02;;;;;;;64.20;28.70;;;;;;;-128.00;-1.00;-1.00;107395;1239;1013007;-74
2024/01/15 02:43:30;;;;;;;59.50;28.40;;;;;;;-128.00;-1.00;-1.00;107392;1239;1011262;-71
2024/01/15 02:45:59;;;;;;;65.60;32.60;;;;;;;-128.00;-1.00;-1.00;107283;1238;1012026;-71
2024/01/15 02:48:27;;;;;;;72.60;31.90;;;;;;;-128.00;-1.00;-1.00;107233;1237;1013394;-71
2024/01/15 02:50:56;;;;;;;61.20;28.80;;;;;;;-128.00;-1.00;-1.00;107266;1238;1013501;-72
2024/01/15 02:53:25;;;;;;;62.40;30.40;;;;;;;-128.00;-1.00;-1.00;107184;1238;1012182;-73
2024/01/15 02:55:54;;;;;;;58.10;27.00;;;;;;;-128.00;-1.00;-1.00;107171;1239;1013113;-73
2024/01/15 02:58:22;;;;;;;64.30;29.10;;;;;;;-128.00;-1.00;-1.00;107245;1238;1011205;-73
2024/01/15 03:00:51;;;;;;;63.90;30.10;;;;;;;-128.00;-1.00;-1.00;107245;1236;1011233;-73
2024/01/15 03:03:20;;;;;;;60.60;26.90;;;;;;;-128.00;-1.00;-1.00;107260;1237;1012823;-72
2024/01/15 03:05:48;;;;;;;58.50;25.80;;;;;;;-128.00;-1.00;-1.00;107289;1237;1013206;-73
2024/01/15 03:08:17;;;;;;;53.70;24.50;;;;;;;-128.00;-1.00;-1.00;107236;1239;1013438;-72
2024/01/15 03:10:46;;;;;;;68.60;31.80;;;;;;;-128.00;-1.00;-1.00;107255;1237;1012902;-72
2024/01/15 03:13:14;;;;;;;61.80;28.50;;;;;;;-128.00;-1.00;-1.00;107281;1238;1011496;-73
2024/01/15 03:15:43;;;;;;;60.70;29.30;;;;;;;-128.00;-1.00;-1.00;107275;1237;1011042;-73
2024/01/15 03:18:12;;;;;;;67.60;32.20;;;;;;;-128.00;-1.00;-1.00;107275;1237;1013078;-73
2024/01/15 03:20:40;;;;;;;67.10;32.80;;;;;;;-128.00;-1.00;-1.00;107298;1236;1012603;-72
2024/01/15 03:23:09;;;;;;;64.50;31.30;;;;;;;-128.00;-1.00;-1.00;107342;1237;1013994;-73
2024/01/15 03:25:38;;;;;;;65.70;30.60;;;;;;;-128.00;-1.00;-1.00;107293;1239;1012977;-72
2024/01/15 03:28:06;;;;;;;66.50;33.10;;;;;;;-128.00;-1.00;-1.00;107448;1238;1010111;-73
2024/01/15 03:30:35;;;;;;;65.30;31.70;;;;;;;-128.00;-1.00;-1.00;107444;1236;1012071;-73
2024/01/15 03:33:04;;;;;;;69.70;31.90;;;;;;;-128.00;-1.00;-1.00;107464;1237;1013665;-73
2024/01/15 03:35:33;;;;;;;68.10;31.90;;;;;;;-128.00;-1.00;-1.00;107482;1238;1013643;-71
2024/01/15 03:38:01;;;;;;;77.50;37.90;;;;;;;-128.00;-1.00;-1.00;107519;1236;1012779;-71
2024/01/15 03:40:30;;;;;;;81.50;36.80;;;;;;;-128.00;-1.00;-1.00;107465;1237;1013048;-71
2024/01/15 03:42:59;;;;;;;74.40;35.00;;;;;;;-128.00;-1.00;-1.00;107508;1237;1010868;-71
2024/01/15 03:45:27;;;;;;;73.90;32.50;;;;;;;-128.00;-1.00;-1.00;107390;1237;1011202;-72
2024/01/15 03:47:56;;;;;;;69.70;31.70;;;;;;;-128.00;-1.00;-1.00;107463;1237;1013333;-72
2024/01/15 03:50:25;;;;;;;68.80;30.70;;;;;;;-128.00;-1.00;-1.00;107446;1238;1013588;-71
2024/01/15 03:52:53;;;;;;;76.70;32.40;;;;;;;-128.00;-1.00;-1.00;107332;1237;1013154;-73
2024/01/15 03:55:22;;;;;;;72.70;31.30;;;;;;;-128.00;-1.00;-1.00;107440;1238;1012519;-73
2024/01/15 03:57:50;;;;;;;65.90;30.40;;;;;;;-128.00;-1.00;-1.00;107448;1238;1010686;-71
2024/01/15 04:00:19;;;;;;;62.40;28.60;;;;;;;-128.00;-1.00;-1.00;107491;1238;1011228;-73
2024/01/15 04:02:48;;;;;;;61.10;29.90;;;;;;;-128.00;-1.00;-1.00;107508;1237;1012615;-77
2024/01/15 04:05:17;;;;;;;57.00;27.00;;;;;;;-128.00;-1.00;-1.00;107492;1236;1012741;-73
2024/01/15 04:07:45;;;;;;;60.60;26.80;;;;;;;-128.00;-1.00;-1.00;107212;1237;1013245;-72
2024/01/15 04:10:14;;;;;;;55.90;26.80;;;;;;;-128.00;-1.00;-1.00;107457;1238;1013931;-72
2024/01/15 04:12:43;;;;;;;65.40;29.00;;;;;;;-128.00;-1.00;-1.00;107485;1237;1010934;-73
2024/01/15 04:15:12;;;;;;;62.60;27.40;;;;;;;-128.00;-1.00;-1.00;107492;1236;1011787;-73
2024/01/15 04:17:41;;;;;;;53.40;25.50;;;;;;;-128.00;-1.00;-1.00;107473;1237;1013807;-73
2024/01/15 04:20:10;;;;;;;53.50;24.60;;;;;;;-128.00;-1.00;-1.00;107482;1237;1012888;-74
2024/01/15 04:22:39;;;;;;;53.60;26.10;;;;;;;-128.00;-1.00;-1.00;107350;1239;1012541;-73
2024/01/15 04:25:08;;;;;;;53.40;25.70;;;;;;;-128.00;-1.00;-1.00;107484;1239;1013285;-73
2024/01/15 04:27:37;;;;;;;50.70;24.40;;;;;;;-128.00;-1.00;-1.00;107515;1238;1009889;-75
2024/01/15 04:30:06;;;;;;;54.20;26.20;;;;;;;-128.00;-1.00;-1.00;107478;1237;1010486;-72
2024/01/15 04:32:35;;;;;;;58.80;27.10;;;;;;;-128.00;-1.00;-1.00;107480;1238;1013142;-72
2024/01/15 04:35:04;;;;;;;51.50;23.40;;;;;;;-128.00;-1.00;-1.00;107512;1238;1013075;-71
2024/01/15 04:37:33;;;;;;;45.10;22.60;;;;;;;-128.00;-1.00;-1.00;107512;1236;1012894;-71
2024/01/15 04:40:03;;;;;;;46.20;21.60;;;;;;;-128.00;-1.00;-1.00;107453;1238;1012976;-72
2024/01/15 04:42:32;;;;;;;48.20;23.20;;;;;;;-128.00;-1.00;-1.00;107462;1238;1010982;-71
2024/01/15 04:45:01;;;;;;;44.20;21.60;;;;;;;-128.00;-1.00;-1.00;107490;1236;1011029;-71
2024/01/15 04:47:29;;;;;;;53.60;24.20;;;;;;;-128.00;-1.00;-1.00;107486;1236;1012998;-71
2024/01/15 04:49:58;;;;;;;50.70;23.70;;;;;;;-128.00;-1.00;-1.00;107527;1238;1012709;-71
2024/01/15 04:52:27;;;;;;;43.10;21.00;;;;;;;-128.00;-1.00;-1.00;107164;1241;1012653;-71
2024/01/15 04:54:59;;;;;;;50.80;22.20;;;;;;;-128.00;-1.00;-1.00;107202;1241;1012869;-73
2024/01/15 04:57:27;;;;;;;45.00;22.00;;;;;;;-128.00;-1.00;-1.00;107455;1238;1009499;-71
2024/01/15 04:59:56;;;;;;;42.50;22.10;;;;;;;-128.00;-1.00;-1.00;107482;1236;1011202;-74
2024/01/15 05:02:24;;;;;;;50.90;25.20;;;;;;;-128.00;-1.00;-1.00;107517;1237;1013309;-72
2024/01/15 05:04:53;;;;;;;43.30;22.80;;;;;;;-128.00;-1.00;-1.00;107477;1237;1013072;-73
2024/01/15 05:07:22;;;;;;;56.60;26.40;;;;;;;-128.00;-1.00;-1.00;107416;1238;1012407;-70
2024/01/15 05:09:50;;;;;;;47.40;25.40;;;;;;;-128.00;-1.00;-1.00;107446;1238;1013664;-69
2024/01/15 05:12:19;;;;;;;52.90;25.80;;;;;;;-128.00;-1.00;-1.00;107530;1239;1010314;-69
2024/01/15 05:14:48;;;;;;;50.20;24.60;;;;;;;-128.00;-1.00;-1.00;107652;1237;1011138;-71
2024/01/15 05:17:17;;;;;;;54.50;26.70;;;;;;;-128.00;-1.00;-1.00;107615;1237;1012750;-76
2024/01/15 05:19:45;;;;;;;50.20;25.50;;;;;;;-128.00;-1.00;-1.00;107489;1239;1013416;-74
2024/01/15 05:22:14;;;;;;;53.90;25.90;;;;;;;-128.00;-1.00;-1.00;107509;1236;1012688;-72
2024/01/15 05:24:43;;;;;;;51.80;25.20;;;;;;;-128.00;-1.00;-1.00;107517;1237;1012909;-74
2024/01/15 05:27:11;;;;;;;58.70;26.60;;;;;;;-128.00;-1.00;-1.00;107503;1237;1010547;-73
2024/01/15 05:29:40;;;;;;;54.90;25.70;;;;;;;-128.00;-1.00;-1.00;107364;1238;1011963;-74
2024/01/15 05:32:09;;;;;;;56.80;27.90;;;;;;;-128.00;-1.00;-1.00;107373;1237;1013115;-73
2024/01/15 05:34:37;;;;;;;62.60;31.30;;;;;;;-128.00;-1.00;-1.00;107404;1244;1013864;-73
2024/01/15 05:37:06;;;;;;;60.60;27.70;;;;;;;-128.00;-1.00;-1.00;107383;1236;1012304;-73
2024/01/15 05:39:35;;;;;;;54.10;27.20;;;;;;;-128.00;-1.00;-1.00;107301;1237;1012699;-75
2024/01/15 05:42:04;;;;;;;51.70;27.30;;;;;;;-128.00;-1.00;-1.00;107420;1238;1011667;-74
2024/01/15 05:44:32;;;;;;;54.90;28.20;;;;;;;-128.00;-1.00;-1.00;107307;1237;1011046;-74
2024/01/15 05:47:01;;;;;;;55.00;27.20;;;;;;;-128.00;-1.00;-1.00;107418;1237;1012258;-74
2024/01/15 05:49:30;;;;;;;53.70;26.20;;;;;;;-128.00;-1.00;-1.00;107460;1238;1013258;-73
2024/01/15 05:51:59;;;;;;;50.90;26.00;;;;;;;-128.00;-1.00;-1.00;107481;1236;1012221;-73
2024/01/15 05:54:27;;;;;;;59.30;30.20;;;;;;;-128.00;-1.00;-1.00;107289;1241;1013354;-73
2024/01/15 05:56:56;;;;;;;49.60;24.40;;;;;;;-128.00;-1.00;-1.00;107382;1238;1010777;-73
2024/01/15 05:59:25;;;;;;;48.80;25.00;;;;;;;-128.00;-1.00;-1.00;107437;1238;1011833;-74
2024/01/15 06:01:54;;;;;;;47.90;22.00;;;;;;;-128.00;-1.00;-1.00;107432;1237;1012184;-74
2024/01/15 06:04:22;;;;;;;51.40;25.40;;;;;;;-128.00;-1.00;-1.00;107309;1238;1013714;-75
2024/01/15 06:06:51;;;;;;;43.80;22.40;;;;;;;-128.00;-1.00;-1.00;107230;1244;1013545;-74
2024/01/15 06:09:21;;;;;;;42.10;19.50;;;;;;;-128.00;-1.00;-1.00;107312;1237;1013689;-73
2024/01/15 06:11:49;;;;;;;41.30;20.40;;;;;;;-128.00;-1.00;-1.00;107213;1244;1011431;-74
2024/01/15 06:14:18;;;;;;;39.30;20.90;;;;;;;-128.00;-1.00;-1.00;107316;1236;1011281;-74
2024/01/15 06:16:46;;;;;;;37.20;18.40;;;;;;;-128.00;-1.00;-1.00;107164;1237;1012207;-75
2024/01/15 06:19:15;;;;;;;38.20;18.90;;;;;;;-128.00;-1.00;-1.00;107294;1238;1013194;-74
2024/01/15 06:21:44;;;;;;;43.30;20.10;;;;;;;-128.00;-1.00;-1.00;107262;1236;1012370;-76
2024/01/15 06:24:13;;;;;;;42.00;20.20;;;;;;;-128.00;-1.00;-1.00;107098;1237;1013082;-74
2024/01/15 06:26:42;;;;;;;43.30;19.10;;;;;;;-128.00;-1.00;-1.00;107143;1239;1011194;-75
2024/01/15 06:29:10;;;;;;;91.70;39.40;;;;;;;-128.00;-1.00;-1.00;107265;1238;1011280;-74
2024/01/15 06:31:39;;;;;;;56.20;25.80;;;;;;;-128.00;-1.00;-1.00;107292;1237;1012470;-75
2024/01/15 06:34:08;;;;;;;42.70;20.20;;;;;;;-128.00;-1.00;-1.00;107359;1237;1012737;-75
2024/01/15 06:36:40;;;;;;;36.40;17.90;;;;;;;-128.00;-1.00;-1.00;107424;1236;1011940;-74
2024/01/15 06:39:10;;;;;;;35.00;19.50;;;;;;;-128.00;-1.00;-1.00;107459;1237;1012889;-74
2024/01/15 06:41:43;;;;;;;35.30;18.20;;;;;;;-128.00;-1.00;-1.00;107304;1244;1011249;-74
2024/01/15 06:44:12;;;;;;;34.40;17.90;;;;;;;-128.00;-1.00;-1.00;107158;1237;1011470;-73
2024/01/15 06:46:45;;;;;;;34.20;17.40;;;;;;;-128.00;-1.00;-1.00;107102;1237;1012509;-69
2024/01/15 06:49:14;;;;;;;33.90;17.20;;;;;;;-128.00;-1.00;-1.00;107112;1236;1012584;-71
2024/01/15 06:51:43;;;;;;;43.70;22.80;;;;;;;-128.00;-1.00;-1.00;107319;1237;1012462;-71
2024/01/15 06:54:15;;;;;;;51.20;30.10;;;;;;;-128.00;-1.00;-1.00;107624;1243;1013341;-72
2024/01/15 06:56:44;;;;;;;55.80;31.50;;;;;;;-128.00;-1.00;-1.00;107417;1244;1010648;-73
2024/01/15 06:59:13;;;;;;;46.80;24.60;;;;;;;-128.00;-1.00;-1.00;107377;1236;1011209;-71
2024/01/15 07:01:47;;;;;;;39.90;22.10;;;;;;;-128.00;-1.00;-1.00;107252;1236;1012721;-70
2024/01/15 07:04:16;;;;;;;335.00;115.90;;;;;;;-128.00;-1.00;-1.00;107424;1244;1013985;-70
2024/01/15 07:06:45;;;;;;;60.40;27.80;;;;;;;-128.00;-1.00;-1.00;107394;1238;1013606;-70
2024/01/15 07:09:14;;;;;;;38.10;19.30;;;;;;;-128.00;-1.00;-1.00;107441;1238;1013119;-71
2024/01/15 07:11:46;;;;;;;44.30;23.40;;;;;;;-128.00;-1.00;-1.00;107407;1244;1010019;-71
2024/01/15 07:14:15;;;;;;;45.50;22.70;;;;;;;-128.00;-1.00;-1.00;107492;1237;1011299;-70
2024/01/15 07:16:44;;;;;;;51.10;25.30;;;;;;;-128.00;-1.00;-1.00;107493;1237;1013220;-71
2024/01/15 07:19:16;;;;;;;43.60;24.90;;;;;;;-128.00;-1.00;-1.00;107463;1237;1013851;-70
2024/01/15 07:21:44;;;;;;;51.20;25.20;;;;;;;-128.00;-1.00;-1.00;107521;1244;1013698;-70
2024/01/15 07:24:13;;;;;;;44.40;24.00;;;;;;;-128.00;-1.00;-1.00;107427;1238;1014215;-70
2024/01/15 07:26:42;;;;;;;49.50;25.20;;;;;;;-128.00;-1.00;-1.00;107433;1238;1010298;-71
2024/01/15 07:29:11;;;;;;;55.20;29.10;;;;;;;-128.00;-1.00;-1.00;107476;1237;1011320;-71
2024/01/15 07:31:39;;;;;;;45.40;24.10;;;;;;;-128.00;-1.00;-1.00;107418;1244;1014226;-71
2024/01/15 07:34:08;;;;;;;53.50;27.80;;;;;;;-128.00;-1.00;-1.00;107422;1238;1013237;-70
2024/01/15 07:36:40;;;;;;;56.10;30.10;;;;;;;-128.00;-1.00;-1.00;107424;1244;1012607;-71
2024/01/15 07:39:09;;;;;;;56.30;29.00;;;;;;;-128.00;-1.00;-1.00;107410;1238;1013742;-70
2024/01/15 07:41:38;;;;;;;50.40;24.60;;;;;;;-128.00;-1.00;-1.00;107408;1238;1009380;-70
2024/01/15 07:44:07;;;;;;;55.00;28.60;;;;;;;-128.00;-1.00;-1.00;107428;1244;1011074;-70
2024/01/15 07:46:36;;;;;;;47.90;25.90;;;;;;;-128.00;-1.00;-1.00;107489;1237;1013364;-71
2024/01/15 07:49:05;;;;;;;52.20;26.40;;;;;;;-128.00;-1.00;-1.00;107459;1237;1012911;-71
2024/01/15 07:51:34;;;;;;;45.80;25.40;;;;;;;-128.00;-1.00;-1.00;107470;1237;1012954;-71
2024/01/15 07:54:03;;;;;;;46.70;26.90;;;;;;;-128.00;-1.00;-1.00;107343;1238;1012741;-71
2024/01/15 07:56:32;;;;;;;49.10;25.10;;;;;;;-128.00;-1.00;-1.00;107263;1244;1011235;-70
2024/01/15 07:59:01;;;;;;;49.50;25.30;;;;;;;-128.00;-1.00;-1.00;107289;1237;1011129;-71
2024/01/15 08:01:29;;;;;;;42.80;22.60;;;;;;;-128.00;-1.00;-1.00;107299;1238;1013661;-70
2024/01/15 08:03:58;;;;;;;45.20;23.40;;;;;;;-128.00;-1.00;-1.00;107313;1238;1012867;-71
2024/01/15 08:06:27;;;;;;;50.10;26.60;;;;;;;-128.00;-1.00;-1.00;107316;1237;1012824;-70
2024/01/15 08:08:56;;;;;;;47.40;24.90;;;;;;;-128.00;-1.00;-1.00;107307;1238;1013467;-70
2024/01/15 08:11:24;;;;;;;46.50;25.10;;;;;;;-128.00;-1.00;-1.00;107392;1238;1009885;-70
2024/01/15 08:13:53;;;;;;;45.00;23.80;;;;;;;-128.00;-1.00;-1.00;107474;1237;1010811;-70
2024/01/15 08:16:24;;;;;;;32.60;19.10;;;;;;;-128.00;-1.00;-1.00;107428;1238;1012083;-70
2024/01/15 08:18:53;;;;;;;36.90;19.90;;;;;;;-128.00;-1.00;-1.00;107316;1236;1014068;-74
2024/01/15 08:21:22;;;;;;;38.40;23.60;;;;;;;-128.00;-1.00;-1.00;107435;1236;1012487;-70
2024/01/15 08:23:51;;;;;;;37.00;19.60;;;;;;;-128.00;-1.00;-1.00;107482;1239;1012922;-70
2024/01/15 08:26:21;;;;;;;25.20;11.90;;;;;;;-128.00;-1.00;-1.00;107470;1236;1011011;-71
2024/01/15 08:28:50;;;;;;;39.40;19.40;;;;;;;-128.00;-1.00;-1.00;107443;1237;1010497;-71
2024/01/15 08:31:18;;;;;;;32.90;18.80;;;;;;;-128.00;-1.00;-1.00;107472;1236;1013778;-71
2024/01/15 08:33:47;;;;;;;33.80;18.30;;;;;;;-128.00;-1.00;-1.00;107446;1238;1013581;-70
2024/01/15 08:36:16;;;;;;;38.80;20.30;;;;;;;-128.00;-1.00;-1.00;107254;1238;1012239;-70
2024/01/15 08:38:45;;;;;;;32.60;17.80;;;;;;;-128.00;-1.00;-1.00;107289;1237;1012245;-71
2024/01/15 08:41:14;;;;;;;37.00;20.00;;;;;;;-128.00;-1.00;-1.00;107237;1238;1010528;-71
2024/01/15 08:43:42;;;;;;;36.90;20.30;;;;;;;-128.00;-1.00;-1.00;107296;1237;1011375;-71
2024/01/15 08:46:11;;;;;;;34.10;19.10;;;;;;;-128.00;-1.00;-1.00;107409;1235;1013515;-71
2024/01/15 08:48:39;;;;;;;44.00;25.90;;;;;;;-128.00;-1.00;-1.00;107267;1236;1013393;-71
2024/01/15 08:51:08;;;;;;;33.90;20.10;;;;;;;-128.00;-1.00;-1.00;107273;1237;1012742;-71
2024/01/15 08:53:37;;;;;;;38.70;24.30;;;;;;;-128.00;-1.00;-1.00;107293;1235;1014467;-70
2024/01/15 08:56:06;;;;;;;31.80;18.10;;;;;;;-128.00;-1.00;-1.00;107270;1238;1009699;-71
2024/01/15 08:58:35;;;;;;;35.30;18.70;;;;;;;-128.00;-1.00;-1.00;107318;1237;1012014;-71
2024/01/15 09:01:04;;;;;;;35.00;19.30;;;;;;;-128.00;-1.00;-1.00;107308;1238;1012585;-70
2024/01/15 09:03:33;;;;;;;47.00;27.00;;;;;;;-128.00;-1.00;-1.00;107296;1237;1012718;-69
2024/01/15 09:06:03;;;;;;;37.10;21.00;;;;;;;-128.00;-1.00;-1.00;107283;1238;1012360;-70
2024/01/15 09:08:31;;;;;;;39.50;20.10;;;;;;;-128.00;-1.00;-1.00;107285;1236;1013130;-71
2024/01/15 09:11:02;;;;;;;33.20;19.70;;;;;;;-128.00;-1.00;-1.00;107290;1238;1011671;-70
2024/01/15 09:13:31;;;;;;;36.80;20.00;;;;;;;-128.00;-1.00;-1.00;107295;1237;1011045;-72
2024/01/15 09:16:00;;;;;;;32.10;18.20;;;;;;;-128.00;-1.00;-1.00;107155;1237;1012834;-70
2024/01/15 09:18:29;;;;;;;34.10;19.20;;;;;;;-128.00;-1.00;-1.00;107249;1236;1013440;-71
2024/01/15 09:20:59;;;;;;;35.70;18.30;;;;;;;-128.00;-1.00;-1.00;107293;1237;1013343;-71
2024/01/15 09:23:28;;;;;;;29.30;17.30;;;;;;;-128.00;-1.00;-1.00;107255;1237;1013771;-71
2024/01/15 09:25:57;;;;;;;30.70;17.20;;;;;;;-128.00;-1.00;-1.00;107279;1236;1010572;-72
2024/01/15 09:28:26;;;;;;;31.40;17.40;;;;;;;-128.00;-1.00;-1.00;107290;1238;1011523;-71
2024/01/15 09:30:54;;;;;;;31.50;17.70;;;;;;;-128.00;-1.00;-1.00;107346;1237;1014009;-71
2024/01/15 09:33:23;;;;;;;26.80;15.60;;;;;;;-128.00;-1.00;-1.00;107420;1236;1012752;-71
2024/01/15 09:35:52;;;;;;;28.90;16.50;;;;;;;-128.00;-1.00;-1.00;107278;1237;1012526;-72
2024/01/15 09:38:21;;;;;;;29.70;15.60;;;;;;;-128.00;-1.00;-1.00;107286;1237;1012782;-71
2024/01/15 09:40:51;;;;;;;25.20;15.20;;;;;;;-128.00;-1.00;-1.00;107259;1238;1010981;-71
2024/01/15 09:43:21;;;;;;;27.10;15.20;;;;;;;-128.00;-1.00;-1.00;107301;1236;1011288;-71
2024/01/15 09:45:51;;;;;;;27.40;15.40;;;;;;;-128.00;-1.00;-1.00;107182;1237;1013089;-71
2024/01/15 09:48:20;;;;;;;22.30;13.10;;;;;;;-128.00;-1.00;-1.00;107259;1236;1013898;-70
2024/01/15 09:50:50;;;;;;;23.60;14.20;;;;;;;-128.00;-1.00;-1.00;107279;1236;1013298;-72
2024/01/15 09:53:20;;;;;;;27.60;14.20;;;;;;;-128.00;-1.00;-1.00;107289;1237;1013006;-71
2024/01/15 09:55:50;;;;;;;25.40;16.20;;;;;;;-128.00;-1.00;-1.00;107300;1238;1011487;-72
2024/01/15 09:58:19;;;;;;;26.20;14.80;;;;;;;-128.00;-1.00;-1.00;107296;1237;1011676;-71
2024/01/15 10:00:50;;;;;;;25.40;16.20;;;;;;;-128.00;-1.00;-1.00;107262;1236;1013676;-71
2024/01/15 10:03:18;;;;;;;28.70;17.30;;;;;;;-128.00;-1.00;-1.00;107256;1236;1012612;-72
2024/01/15 10:05:49;;;;;;;27.00;17.10;;;;;;;-128.00;-1.00;-1.00;107240;1236;1013021;-73
2024/01/15 10:08:18;;;;;;;34.80;18.60;;;;;;;-128.00;-1.00;-1.00;107191;1238;1012298;-72
2024/01/15 10:10:47;;;;;;;29.30;16.30;;;;;;;-128.00;-1.00;-1.00;107237;1238;1011901;-71
2024/01/15 10:13:16;;;;;;;28.50;15.20;;;;;;;-128.00;-1.00;-1.00;107251;1237;1011825;-72
2024/01/15 10:15:49;;;;;;;26.20;15.40;;;;;;;-128.00;-1.00;-1.00;107170;1236;1014269;-72
2024/01/15 10:18:18;;;;;;;32.30;18.30;;;;;;;-128.00;-1.00;-1.00;107369;1237;1013184;-71
2024/01/15 10:20:47;;;;;;;28.90;16.40;;;;;;;-128.00;-1.00;-1.00;107276;1236;1012402;-72
2024/01/15 10:23:16;;;;;;;29.00;17.00;;;;;;;-128.00;-1.00;-1.00;107290;1235;1013740;-71
2024/01/15 10:25:45;;;;;;;29.50;16.60;;;;;;;-128.00;-1.00;-1.00;107260;1236;1009975;-73
2024/01/15 10:28:14;;;;;;;24.10;15.10;;;;;;;-128.00;-1.00;-1.00;107283;1237;1011501;-71
2024/01/15 10:30:42;;;;;;;28.40;17.70;;;;;;;-128.00;-1.00;-1.00;107302;1237;1014190;-70
2024/01/15 10:33:11;;;;;;;30.40;18.20;;;;;;;-128.00;-1.00;-1.00;107323;1236;1014121;-72
2024/01/15 10:35:41;;;;;;;30.50;16.80;;;;;;;-128.00;-1.00;-1.00;107288;1236;1013727;-70
2024/01/15 10:38:09;;;;;;;28.00;17.30;;;;;;;-128.00;-1.00;-1.00;107347;1236;1013762;-72
2024/01/15 10:40:38;;;;;;;26.20;16.50;;;;;;;-128.00;-1.00;-1.00;107160;1239;1009767;-70
2024/01/15 10:43:07;;;;;;;31.50;18.00;;;;;;;-128.00;-1.00;-1.00;107304;1236;1011809;-70
2024/01/15 10:45:36;;;;;;;29.70;17.30;;;;;;;-128.00;-1.00;-1.00;107302;1236;1014086;-71
2024/01/15 10:48:05;;;;;;;31.20;18.40;;;;;;;-128.00;-1.00;-1.00;107302;1237;1013754;-70
2024/01/15 10:50:34;;;;;;;26.90;16.30;;;;;;;-128.00;-1.00;-1.00;107304;1236;1012199;-70
2024/01/15 10:53:04;;;;;;;30.80;17.20;;;;;;;-128.00;-1.00;-1.00;107268;1235;1012712;-70
2024/01/15 10:55:35;;;;;;;27.70;17.00;;;;;;;-128.00;-1.00;-1.00;107333;1238;1011030;-70
2024/01/15 10:58:04;;;;;;;27.20;15.80;;;;;;;-128.00;-1.00;-1.00;107459;1236;1010975;-71
2024/01/15 11:00:34;;;;;;;28.10;15.70;;;;;;;-128.00;-1.00;-1.00;107441;1235;1013273;-71
2024/01/15 11:03:07;;;;;;;28.60;17.40;;;;;;;-128.00;-1.00;-1.00;107161;1236;1013500;-70
2024/01/15 11:05:42;;;;;;;27.60;16.60;;;;;;;-128.00;-1.00;-1.00;107402;1236;1012507;-71
2024/01/15 11:08:12;;;;;;;28.90;16.40;;;;;;;-128.00;-1.00;-1.00;107267;1238;1013284;-71
2024/01/15 11:10:48;;;;;;;28.60;15.60;;;;;;;-128.00;-1.00;-1.00;107300;1236;1010009;-72